Brandy Bar — WDF7323 — position and weather

sailwx.info

Track history (hours):
 
Tides and Currents Weather Stations Pressure Air Temp Water Temp Dewpoint Dewpoint Depression Visibility Wind Speed Wind Dir Waves Ship Positions

Brandy Bar

Owner: Brandy Bar, Tiburon, CA. More information available from US FCC via Universal Licensing System and Coast Guard Vessel Documentation Center.

Last reported at 2017-Oct-18 23:27 UTC. Time now 2017-Oct-18 23:52 UTC.
Position N 38°03' W 122°09'.

Type: Towing. MMSI: 367483310.

Date/timePositionNaut miles runAvg speedWind from/ knotsBaromVisibWave heightAir tempDewpointWater temp
2017-Oct-18 23:27N 38°03' W 122°09'0 0.0
2017-Oct-18 22:50N 38°03' W 122°09'0 0.6
2017-Oct-18 22:30N 38°02' W 122°09'3 5.7
2017-Oct-18 22:00N 38°03' W 122°13'2 4.6
2017-Oct-18 21:30N 38°04' W 122°16'2 3.8
2017-Oct-18 20:59N 38°04' W 122°13'2 4.2
2017-Oct-18 20:29N 38°03' W 122°11'1 2.4
2017-Oct-18 20:00N 38°03' W 122°09'0 0.0
2017-Oct-18 19:30N 38°03' W 122°09'0 0.0
2017-Oct-18 18:54N 38°03' W 122°09'0 0.0
2017-Oct-17 18:18N 38°03' W 122°09'0 0.1
2017-Oct-17 17:48N 38°03' W 122°09'0 0.0
2017-Oct-17 17:30N 38°03' W 122°09'0 0.1
2017-Oct-17 17:00N 38°03' W 122°09'0 0.0
2017-Oct-17 16:26N 38°03' W 122°09'0 0.0
2017-Oct-17 15:59N 38°03' W 122°09'0 0.0
2017-Oct-17 15:30N 38°03' W 122°09'0 0.0
2017-Oct-17 15:01N 38°03' W 122°09'0 0.0
2017-Oct-16 15:40N 38°03' W 122°09'0 0.0
2017-Oct-16 14:41N 38°03' W 122°09'0 0.0
2017-Oct-16 14:24N 38°03' W 122°09'0 0.0
2017-Oct-14 20:16N 38°02' W 122°09'2 4.8
2017-Oct-14 19:53N 38°03' W 122°12'2 5.6
2017-Oct-14 19:29N 38°04' W 122°14'0 0.6
2017-Oct-14 18:59N 38°04' W 122°15'2 4.7
2017-Oct-14 18:30N 38°03' W 122°12'2 0.1
2017-Oct-13 17:58N 38°03' W 122°09'0 0.0
2017-Oct-13 17:28N 38°03' W 122°09'0 0.0
2017-Oct-13 16:56N 38°03' W 122°09'0 0.0
2017-Oct-11 23:46N 38°02' W 122°09'2 5.9
2017-Oct-11 23:30N 38°03' W 122°11'3 7.0
2017-Oct-11 23:00N 38°04' W 122°16'1 2.0
2017-Oct-11 22:29N 38°04' W 122°14'4 1.3
2017-Oct-11 19:27N 38°02' W 122°10'2 4.8
2017-Oct-11 18:57N 38°03' W 122°12'2 4.2
2017-Oct-11 18:30N 38°04' W 122°15'0 0.7
2017-Oct-11 17:59N 38°04' W 122°15'4 6.3
2017-Oct-11 17:19N 38°03' W 122°09'0 0.0
2017-Oct-10 23:52N 38°02' W 122°10'3 7.5
2017-Oct-10 23:30N 38°04' W 122°13'2 4.4
2017-Oct-10 23:00N 38°04' W 122°16'2 3.3
2017-Oct-10 22:30N 38°04' W 122°13'2 3.7
2017-Oct-10 22:00N 38°03' W 122°11'2 0.6
2017-Oct-10 19:24N 38°02' W 122°09'2 4.9
2017-Oct-10 19:00N 38°03' W 122°12'2 4.3
2017-Oct-10 18:30N 38°04' W 122°14'1 1.1
2017-Oct-10 18:00N 38°04' W 122°15'4 7.1
2017-Oct-10 17:30N 38°03' W 122°11'  
Track history (hours):
 
Tides and Currents Weather Stations Pressure Air Temp Water Temp Dewpoint Dewpoint Depression Visibility Wind Speed Wind Dir Waves Ship Positions

Brandy Bar

Owner: Brandy Bar, Tiburon, CA. More information available from US FCC via Universal Licensing System and Coast Guard Vessel Documentation Center.

Last reported at 2017-Oct-18 23:27 UTC. Time now 2017-Oct-18 23:52 UTC.
Position N 38°03' W 122°09'.

Type: Towing. MMSI: 367483310.

Date/timePositionNaut miles runAvg speedWind from/ knotsBaromVisibWave heightAir tempDewpointWater temp
2017-Oct-18 23:27N 38°03' W 122°09'0 0.0
2017-Oct-18 22:50N 38°03' W 122°09'0 0.6
2017-Oct-18 22:30N 38°02' W 122°09'3 5.7
2017-Oct-18 22:00N 38°03' W 122°13'2 4.6
2017-Oct-18 21:30N 38°04' W 122°16'2 3.8
2017-Oct-18 20:59N 38°04' W 122°13'2 4.2
2017-Oct-18 20:29N 38°03' W 122°11'1 2.4
2017-Oct-18 20:00N 38°03' W 122°09'0 0.0
2017-Oct-18 19:30N 38°03' W 122°09'0 0.0
2017-Oct-18 18:54N 38°03' W 122°09'0 0.0
2017-Oct-17 18:18N 38°03' W 122°09'0 0.1
2017-Oct-17 17:48N 38°03' W 122°09'0 0.0
2017-Oct-17 17:30N 38°03' W 122°09'0 0.1
2017-Oct-17 17:00N 38°03' W 122°09'0 0.0
2017-Oct-17 16:26N 38°03' W 122°09'0 0.0
2017-Oct-17 15:59N 38°03' W 122°09'0 0.0
2017-Oct-17 15:30N 38°03' W 122°09'0 0.0
2017-Oct-17 15:01N 38°03' W 122°09'0 0.0
2017-Oct-16 15:40N 38°03' W 122°09'0 0.0
2017-Oct-16 14:41N 38°03' W 122°09'0 0.0
2017-Oct-16 14:24N 38°03' W 122°09'0 0.0
2017-Oct-14 20:16N 38°02' W 122°09'2 4.8
2017-Oct-14 19:53N 38°03' W 122°12'2 5.6
2017-Oct-14 19:29N 38°04' W 122°14'0 0.6
2017-Oct-14 18:59N 38°04' W 122°15'2 4.7
2017-Oct-14 18:30N 38°03' W 122°12'2 0.1
2017-Oct-13 17:58N 38°03' W 122°09'0 0.0
2017-Oct-13 17:28N 38°03' W 122°09'0 0.0
2017-Oct-13 16:56N 38°03' W 122°09'0 0.0
2017-Oct-11 23:46N 38°02' W 122°09'2 5.9
2017-Oct-11 23:30N 38°03' W 122°11'3 7.0
2017-Oct-11 23:00N 38°04' W 122°16'1 2.0
2017-Oct-11 22:29N 38°04' W 122°14'4 1.3
2017-Oct-11 19:27N 38°02' W 122°10'2 4.8
2017-Oct-11 18:57N 38°03' W 122°12'2 4.2
2017-Oct-11 18:30N 38°04' W 122°15'0 0.7
2017-Oct-11 17:59N 38°04' W 122°15'4 6.3
2017-Oct-11 17:19N 38°03' W 122°09'0 0.0
2017-Oct-10 23:52N 38°02' W 122°10'3 7.5
2017-Oct-10 23:30N 38°04' W 122°13'2 4.4
2017-Oct-10 23:00N 38°04' W 122°16'2 3.3
2017-Oct-10 22:30N 38°04' W 122°13'2 3.7
2017-Oct-10 22:00N 38°03' W 122°11'2 0.6
2017-Oct-10 19:24N 38°02' W 122°09'2 4.9
2017-Oct-10 19:00N 38°03' W 122°12'2 4.3
2017-Oct-10 18:30N 38°04' W 122°14'1 1.1
2017-Oct-10 18:00N 38°04' W 122°15'4 7.1
2017-Oct-10 17:30N 38°03' W 122°11'  

Dump ship's entire track history